createdAt,value
2023-02-24T00:00:37.950Z,99.10
2023-02-24T00:03:11.731Z,99.10
2023-02-24T00:05:44.464Z,99.10
2023-02-24T00:08:12.525Z,99.20
2023-02-24T00:10:40.531Z,99.20
2023-02-24T00:13:08.711Z,99.30
2023-02-24T00:15:38.035Z,99.20
2023-02-24T00:18:07.223Z,99.30
2023-02-24T00:20:36.459Z,99.10
2023-02-24T00:23:05.020Z,99.20
2023-02-24T00:25:33.099Z,99.20
2023-02-24T00:28:01.795Z,99.10
2023-02-24T00:30:32.848Z,99.00
2023-02-24T00:33:03.728Z,99.10
2023-02-24T00:35:31.768Z,99.20
2023-02-24T00:37:59.807Z,99.30
2023-02-24T00:40:30.316Z,99.40
2023-02-24T00:42:59.202Z,99.50
2023-02-24T00:45:30.443Z,99.50
2023-02-24T00:47:58.434Z,99.50
2023-02-24T00:50:27.751Z,99.40
2023-02-24T00:52:55.729Z,99.50
2023-02-24T00:55:23.877Z,99.50
2023-02-24T00:57:51.916Z,99.60
2023-02-24T01:00:21.372Z,99.60
2023-02-24T01:02:49.393Z,99.60
2023-02-24T01:05:17.510Z,99.60
2023-02-24T01:07:46.992Z,99.60
2023-02-24T01:10:14.959Z,99.70
2023-02-24T01:12:50.792Z,99.80
2023-02-24T01:15:19.906Z,99.90
2023-02-24T01:17:48.253Z,99.90
2023-02-24T01:20:19.763Z,99.80
2023-02-24T01:22:50.879Z,99.80
2023-02-24T01:25:20.415Z,99.90
2023-02-24T01:27:48.692Z,99.90
2023-02-24T01:30:18.415Z,99.90
2023-02-24T01:32:48.038Z,99.90
2023-02-24T01:35:16.493Z,99.90
2023-02-24T01:37:45.435Z,99.90
2023-02-24T01:40:21.687Z,99.90
2023-02-24T01:42:50.807Z,99.90
2023-02-24T01:45:24.873Z,99.90
2023-02-24T01:47:53.993Z,99.90
2023-02-24T01:50:26.103Z,99.90
2023-02-24T01:52:58.829Z,99.90
2023-02-24T01:55:32.232Z,99.90
2023-02-24T01:58:04.952Z,99.90
2023-02-24T02:00:37.765Z,99.90
2023-02-24T02:03:15.383Z,99.90
2023-02-24T02:05:45.391Z,99.90
2023-02-24T02:08:15.013Z,99.90
2023-02-24T02:10:45.282Z,99.90
2023-02-24T02:13:15.040Z,99.90
2023-02-24T02:15:56.756Z,99.90
2023-02-24T02:18:34.514Z,99.90
2023-02-24T02:21:40.602Z,99.90
2023-02-24T02:24:32.467Z,99.90
2023-02-24T02:27:31.728Z,99.90
2023-02-24T02:30:36.507Z,99.90
2023-02-24T02:33:21.686Z,99.90
2023-02-24T02:36:00.597Z,99.90
2023-02-24T02:38:38.991Z,99.90
2023-02-24T02:41:17.778Z,99.90
2023-02-24T02:43:52.573Z,99.90
2023-02-24T02:46:34.901Z,99.90
2023-02-24T02:49:14.241Z,99.90
2023-02-24T02:51:51.694Z,99.90
2023-02-24T02:54:27.155Z,99.90
2023-02-24T02:57:01.413Z,99.90
2023-02-24T02:59:32.276Z,99.90
2023-02-24T03:02:11.839Z,99.90
2023-02-24T03:04:43.427Z,99.90
2023-02-24T03:07:15.505Z,99.90
2023-02-24T03:09:49.657Z,99.90
2023-02-24T03:12:21.449Z,99.90
2023-02-24T03:14:53.516Z,99.90
2023-02-24T03:17:25.759Z,99.90
2023-02-24T03:20:00.431Z,99.90
2023-02-24T03:22:35.478Z,99.90
2023-02-24T03:25:05.842Z,99.90
2023-02-24T03:27:42.845Z,99.90
2023-02-24T03:30:17.040Z,99.90
2023-02-24T03:32:56.134Z,99.90
2023-02-24T03:35:27.329Z,99.90
2023-02-24T03:37:59.467Z,99.90
2023-02-24T03:40:36.075Z,99.90
2023-02-24T03:43:07.652Z,99.90
2023-02-24T03:45:41.770Z,99.90
2023-02-24T03:48:12.951Z,99.90
2023-02-24T03:50:42.613Z,99.90
2023-02-24T03:53:31.146Z,99.90
2023-02-24T03:56:11.133Z,99.90
2023-02-24T03:58:47.816Z,99.90
2023-02-24T04:01:21.441Z,99.90
2023-02-24T04:04:02.677Z,99.90
2023-02-24T04:06:36.875Z,99.90
2023-02-24T04:09:13.272Z,99.90
2023-02-24T04:11:48.342Z,99.90
2023-02-24T04:14:25.108Z,99.90
2023-02-24T04:17:01.139Z,99.90
2023-02-24T04:19:33.375Z,99.90
2023-02-24T04:22:03.955Z,99.90
2023-02-24T04:24:34.799Z,99.90
2023-02-24T04:27:07.338Z,99.90
2023-02-24T04:29:40.423Z,99.90
2023-02-24T04:32:11.594Z,99.90
2023-02-24T04:34:40.438Z,99.90
2023-02-24T04:37:08.912Z,99.90
2023-02-24T04:39:38.927Z,99.90
2023-02-24T04:42:07.410Z,99.90
2023-02-24T04:44:35.694Z,99.90
2023-02-24T04:47:03.933Z,99.90
2023-02-24T04:49:31.946Z,99.90
2023-02-24T04:52:00.010Z,99.90
2023-02-24T04:54:29.758Z,99.90
2023-02-24T04:56:59.520Z,99.90
2023-02-24T04:59:29.127Z,99.90
2023-02-24T05:02:01.521Z,99.90
2023-02-24T05:04:31.862Z,99.90
2023-02-24T05:07:00.586Z,99.90
2023-02-24T05:09:30.292Z,99.90
2023-02-24T05:12:01.745Z,99.90
2023-02-24T05:14:31.085Z,99.90
2023-02-24T05:17:00.525Z,99.90
2023-02-24T05:19:46.334Z,99.90
2023-02-24T05:22:16.999Z,99.90
2023-02-24T05:24:48.010Z,99.90
2023-02-24T05:27:17.571Z,99.90
2023-02-24T05:29:45.853Z,99.90
2023-02-24T05:32:16.744Z,99.90
2023-02-24T05:34:44.986Z,99.90
2023-02-24T05:37:16.438Z,99.90
2023-02-24T05:39:44.410Z,99.90
2023-02-24T05:42:12.947Z,99.90
2023-02-24T05:44:42.249Z,99.90
2023-02-24T05:47:10.519Z,99.90
2023-02-24T05:49:38.938Z,99.90
2023-02-24T05:52:09.617Z,99.90
2023-02-24T05:54:40.386Z,99.90
2023-02-24T05:57:11.997Z,99.90
2023-02-24T05:59:42.322Z,99.90
2023-02-24T06:02:12.947Z,99.90
2023-02-24T06:04:51.212Z,99.90
2023-02-24T06:07:24.745Z,99.90
2023-02-24T06:09:56.578Z,99.90
2023-02-24T06:12:27.349Z,99.90
2023-02-24T06:14:58.143Z,99.90
2023-02-24T06:17:26.102Z,99.90
2023-02-24T06:19:55.308Z,99.90
2023-02-24T06:22:25.171Z,99.90
2023-02-24T06:24:55.392Z,99.90
2023-02-24T06:27:24.959Z,99.90
2023-02-24T06:29:54.925Z,99.90
2023-02-24T06:32:27.052Z,99.90
2023-02-24T06:34:57.224Z,99.90
2023-02-24T06:37:25.450Z,99.90
2023-02-24T06:39:53.433Z,99.90
2023-02-24T06:42:21.379Z,99.90
2023-02-24T06:44:50.425Z,99.90
2023-02-24T06:47:18.416Z,99.90
2023-02-24T06:49:47.964Z,99.90
2023-02-24T06:52:19.223Z,99.90
2023-02-24T06:54:49.733Z,99.90
2023-02-24T06:57:20.364Z,99.90
2023-02-24T06:59:48.999Z,99.90
2023-02-24T07:02:17.852Z,99.90
2023-02-24T07:04:47.680Z,99.90
2023-02-24T07:07:17.399Z,99.90
2023-02-24T07:09:45.756Z,99.90
2023-02-24T07:12:15.661Z,99.90
2023-02-24T07:14:44.099Z,99.90
2023-02-24T07:17:14.720Z,99.90
2023-02-24T07:19:42.759Z,99.90
2023-02-24T07:22:14.746Z,99.90
2023-02-24T07:24:46.268Z,99.90
2023-02-24T07:27:22.108Z,99.90
2023-02-24T07:29:52.922Z,99.90
2023-02-24T07:32:23.397Z,99.90
2023-02-24T07:34:51.461Z,99.90
2023-02-24T07:37:21.148Z,99.90
2023-02-24T07:39:49.173Z,99.90
2023-02-24T07:42:17.192Z,99.90
2023-02-24T07:44:46.710Z,99.90
2023-02-24T07:47:15.922Z,99.90
2023-02-24T07:49:45.273Z,99.90
2023-02-24T07:52:13.417Z,99.90
2023-02-24T07:54:43.194Z,99.90
2023-02-24T07:57:14.182Z,99.90
2023-02-24T07:59:47.637Z,99.90
2023-02-24T08:02:16.531Z,99.90
2023-02-24T08:04:50.073Z,99.90
2023-02-24T08:07:24.516Z,99.90
2023-02-24T08:10:12.258Z,99.90
2023-02-24T08:12:43.438Z,99.90
2023-02-24T08:15:21.928Z,99.90
2023-02-24T08:17:49.984Z,99.90
2023-02-24T08:20:25.995Z,99.90
2023-02-24T08:22:55.419Z,99.90
2023-02-24T08:25:36.504Z,99.90
2023-02-24T08:28:09.204Z,99.90
2023-02-24T08:30:40.910Z,99.90
2023-02-24T08:33:11.397Z,99.90
2023-02-24T08:35:45.082Z,99.90
2023-02-24T08:38:15.685Z,99.90
2023-02-24T08:40:52.513Z,99.90
2023-02-24T08:43:32.801Z,99.90
2023-02-24T08:46:06.559Z,99.90
2023-02-24T08:48:39.073Z,99.90
2023-02-24T08:51:11.669Z,99.90
2023-02-24T08:53:41.395Z,99.90
2023-02-24T08:56:13.631Z,99.90
2023-02-24T08:58:47.320Z,99.90
2023-02-24T09:01:24.421Z,99.90
2023-02-24T09:03:55.326Z,99.90
2023-02-24T09:06:27.623Z,99.90
2023-02-24T09:09:11.406Z,99.90
2023-02-24T09:11:44.255Z,99.90
2023-02-24T09:14:32.216Z,99.90
2023-02-24T09:17:03.810Z,99.90
2023-02-24T09:20:01.913Z,99.90
2023-02-24T09:22:57.300Z,99.90
2023-02-24T09:25:40.436Z,99.90
2023-02-24T09:28:17.404Z,99.90
2023-02-24T09:30:54.248Z,99.90
2023-02-24T09:33:25.853Z,99.90
2023-02-24T09:36:10.661Z,99.90
2023-02-24T09:38:59.740Z,99.90
2023-02-24T09:41:53.270Z,99.90
2023-02-24T09:44:29.583Z,99.90
2023-02-24T09:47:09.137Z,99.90
2023-02-24T09:49:47.810Z,99.90
2023-02-24T09:52:19.073Z,99.90
2023-02-24T09:55:14.659Z,99.90
2023-02-24T09:58:12.943Z,99.90
2023-02-24T10:00:51.842Z,99.90
2023-02-24T10:03:41.635Z,99.90
2023-02-24T10:06:20.850Z,99.90
2023-02-24T10:08:55.762Z,99.90
2023-02-24T10:11:33.866Z,99.90
2023-02-24T10:14:05.448Z,99.90
2023-02-24T10:17:08.376Z,99.90
2023-02-24T10:19:36.339Z,99.90
2023-02-24T10:22:23.163Z,99.90
2023-02-24T10:25:01.503Z,99.90
2023-02-24T10:27:39.532Z,99.90
2023-02-24T10:30:19.873Z,99.90
2023-02-24T10:32:58.820Z,99.90
2023-02-24T10:35:33.592Z,99.90
2023-02-24T10:38:05.367Z,99.90
2023-02-24T10:40:45.118Z,99.90
2023-02-24T10:43:19.513Z,99.90
2023-02-24T10:45:48.820Z,99.90
2023-02-24T10:48:40.403Z,99.90
2023-02-24T10:51:19.807Z,99.90
2023-02-24T10:54:10.138Z,99.90
2023-02-24T10:56:44.569Z,99.90
2023-02-24T10:59:41.226Z,99.90
2023-02-24T11:02:32.745Z,99.90
2023-02-24T11:05:27.252Z,99.90
2023-02-24T11:08:09.532Z,99.90
2023-02-24T11:10:53.267Z,99.90
2023-02-24T11:13:39.324Z,99.90
2023-02-24T11:16:28.308Z,99.80
2023-02-24T11:18:58.259Z,99.00
2023-02-24T11:21:28.966Z,99.40
2023-02-24T11:24:02.717Z,99.40
2023-02-24T11:26:37.031Z,99.50
2023-02-24T11:29:32.356Z,99.50
2023-02-24T11:32:15.488Z,99.00
2023-02-24T11:34:53.617Z,98.80
2023-02-24T11:37:36.051Z,98.70
2023-02-24T11:40:09.505Z,98.40
2023-02-24T11:42:42.036Z,98.40
2023-02-24T11:45:22.882Z,98.40
2023-02-24T11:47:56.380Z,98.20
2023-02-24T11:50:34.007Z,98.10
2023-02-24T11:53:09.011Z,97.70
2023-02-24T11:55:43.120Z,97.00
2023-02-24T11:58:21.004Z,96.70
2023-02-24T12:00:55.946Z,97.00
2023-02-24T12:03:30.843Z,96.90
2023-02-24T12:06:09.096Z,97.30
2023-02-24T12:08:40.967Z,97.40
2023-02-24T12:11:15.616Z,97.40
2023-02-24T12:13:51.227Z,97.10
2023-02-24T12:16:24.050Z,96.80
2023-02-24T12:18:59.147Z,96.60
2023-02-24T12:21:33.848Z,95.80
2023-02-24T12:24:08.499Z,95.60
2023-02-24T12:26:43.631Z,95.20
2023-02-24T12:29:42.366Z,95.10
2023-02-24T12:32:21.043Z,95.30
2023-02-24T12:34:57.984Z,95.20
2023-02-24T12:37:50.608Z,95.10
2023-02-24T12:40:32.607Z,95.10
2023-02-24T12:43:11.057Z,94.40
2023-02-24T12:45:50.180Z,94.40
2023-02-24T12:48:33.569Z,94.20
2023-02-24T12:51:08.619Z,93.90
2023-02-24T12:53:47.388Z,93.90
2023-02-24T12:56:22.796Z,93.80
2023-02-24T12:58:54.354Z,93.60
2023-02-24T13:01:28.820Z,93.50
2023-02-24T13:04:18.988Z,93.30
2023-02-24T13:06:59.468Z,93.30
2023-02-24T13:09:35.846Z,92.80
2023-02-24T13:12:12.369Z,92.40
2023-02-24T13:14:41.971Z,92.50
2023-02-24T13:17:22.459Z,92.10
2023-02-24T13:19:53.061Z,91.60
2023-02-24T13:22:25.248Z,91.50
2023-02-24T13:25:18.587Z,91.50
2023-02-24T13:27:57.694Z,91.10
2023-02-24T13:30:30.485Z,90.90
2023-02-24T13:33:05.690Z,90.80
2023-02-24T13:35:37.436Z,90.90
2023-02-24T13:38:24.002Z,91.30
2023-02-24T13:40:52.530Z,91.00
2023-02-24T13:43:28.571Z,91.30
2023-02-24T13:46:00.624Z,91.20
2023-02-24T13:48:46.370Z,90.40
2023-02-24T13:51:31.195Z,90.80
2023-02-24T13:54:12.748Z,90.60
2023-02-24T13:56:45.633Z,90.90
2023-02-24T13:59:42.588Z,90.90
2023-02-24T14:02:18.278Z,90.90
2023-02-24T14:04:49.771Z,90.60
2023-02-24T14:07:23.143Z,90.70
2023-02-24T14:09:55.387Z,90.40
2023-02-24T14:12:26.800Z,90.10
2023-02-24T14:14:57.510Z,90.00
2023-02-24T14:17:28.762Z,90.20
2023-02-24T14:20:08.820Z,89.90
2023-02-24T14:22:44.611Z,90.00
2023-02-24T14:25:15.829Z,90.00
2023-02-24T14:27:45.906Z,90.10
2023-02-24T14:30:26.000Z,90.20
2023-02-24T14:32:54.510Z,90.00
2023-02-24T14:35:28.800Z,89.70
2023-02-24T14:37:57.639Z,89.50
2023-02-24T14:40:26.052Z,89.80
2023-02-24T14:42:57.232Z,89.40
2023-02-24T14:45:28.806Z,89.80
2023-02-24T14:47:57.832Z,89.90
2023-02-24T14:50:29.014Z,90.10
2023-02-24T14:53:01.380Z,90.00
2023-02-24T14:55:31.249Z,90.20
2023-02-24T14:58:03.078Z,90.10
2023-02-24T15:00:36.363Z,90.30
2023-02-24T15:03:12.453Z,90.60
2023-02-24T15:05:45.940Z,90.60
2023-02-24T15:08:28.396Z,90.20
2023-02-24T15:10:56.732Z,90.20
2023-02-24T15:13:31.419Z,90.40
2023-02-24T15:16:07.180Z,90.60
2023-02-24T15:18:35.261Z,90.60
2023-02-24T15:21:05.449Z,90.60
2023-02-24T15:23:35.172Z,90.60
2023-02-24T15:26:04.524Z,90.80
2023-02-24T15:28:34.828Z,91.00
2023-02-24T15:31:09.793Z,91.30
2023-02-24T15:33:40.410Z,91.30
2023-02-24T15:36:12.447Z,91.50
2023-02-24T15:38:42.437Z,91.30
2023-02-24T15:41:12.101Z,91.30
2023-02-24T15:43:47.355Z,91.50
2023-02-24T15:46:26.228Z,91.60
2023-02-24T15:48:56.386Z,91.10
2023-02-24T15:51:33.311Z,91.20
2023-02-24T15:54:02.486Z,91.40
2023-02-24T15:56:32.958Z,91.50
2023-02-24T15:59:02.693Z,91.80
2023-02-24T16:01:32.661Z,92.00
2023-02-24T16:04:01.159Z,92.00
2023-02-24T16:06:29.895Z,92.20
2023-02-24T16:08:59.147Z,92.20
2023-02-24T16:11:32.789Z,92.40
2023-02-24T16:14:01.675Z,92.40
2023-02-24T16:16:33.363Z,92.50
2023-02-24T16:19:01.466Z,92.60
2023-02-24T16:21:30.400Z,92.60
2023-02-24T16:23:58.368Z,92.70
2023-02-24T16:26:26.489Z,93.00
2023-02-24T16:28:56.589Z,92.90
2023-02-24T16:31:26.116Z,93.00
2023-02-24T16:33:56.463Z,93.00
2023-02-24T16:36:26.286Z,93.00
2023-02-24T16:38:54.574Z,93.10
2023-02-24T16:41:23.464Z,93.30
2023-02-24T16:43:51.759Z,93.20
2023-02-24T16:46:22.988Z,93.40
2023-02-24T16:48:53.347Z,93.40
2023-02-24T16:51:23.437Z,93.60
2023-02-24T16:53:51.383Z,93.60
2023-02-24T16:56:19.580Z,93.70
2023-02-24T16:58:47.704Z,93.80
2023-02-24T17:01:21.122Z,93.90
2023-02-24T17:03:51.342Z,93.90
2023-02-24T17:06:21.949Z,94.00
2023-02-24T17:08:51.966Z,94.10
2023-02-24T17:11:21.928Z,94.10
2023-02-24T17:13:49.930Z,94.20
2023-02-24T17:16:18.025Z,94.10
2023-02-24T17:18:46.064Z,94.20
2023-02-24T17:21:15.254Z,94.30
2023-02-24T17:23:43.702Z,94.30
2023-02-24T17:26:15.928Z,94.30
2023-02-24T17:28:44.118Z,94.50
2023-02-24T17:31:12.518Z,94.60
2023-02-24T17:33:41.010Z,94.50
2023-02-24T17:36:09.083Z,94.60
2023-02-24T17:38:37.109Z,94.70
2023-02-24T17:41:05.198Z,94.70
2023-02-24T17:43:34.582Z,94.90
2023-02-24T17:46:06.635Z,94.90
2023-02-24T17:48:35.517Z,94.90
2023-02-24T17:51:03.500Z,95.10
2023-02-24T17:53:32.222Z,95.20
2023-02-24T17:56:04.813Z,95.20
2023-02-24T17:58:34.698Z,95.40
2023-02-24T18:01:03.392Z,95.50
2023-02-24T18:03:32.011Z,95.60
2023-02-24T18:06:00.972Z,95.60
2023-02-24T18:08:30.505Z,95.70
2023-02-24T18:10:59.988Z,95.80
2023-02-24T18:13:28.458Z,95.80
2023-02-24T18:15:58.384Z,95.90
2023-02-24T18:18:27.107Z,96.00
2023-02-24T18:21:00.676Z,96.00
2023-02-24T18:23:28.716Z,96.30
2023-02-24T18:25:56.751Z,96.40
2023-02-24T18:28:24.694Z,96.70
2023-02-24T18:30:52.784Z,96.90
2023-02-24T18:33:22.353Z,97.00
2023-02-24T18:35:58.430Z,97.20
2023-02-24T18:38:26.543Z,97.30
2023-02-24T18:41:02.360Z,97.50
2023-02-24T18:43:31.217Z,97.60
2023-02-24T18:46:00.202Z,97.70
2023-02-24T18:48:30.371Z,98.00
2023-02-24T18:50:59.588Z,98.00
2023-02-24T18:53:29.482Z,98.20
2023-02-24T18:56:00.789Z,98.30
2023-02-24T18:58:29.388Z,98.50
2023-02-24T19:00:57.974Z,98.50
2023-02-24T19:03:26.082Z,98.60
2023-02-24T19:05:55.411Z,98.70
2023-02-24T19:08:23.386Z,98.70
2023-02-24T19:10:51.369Z,98.80
2023-02-24T19:13:19.329Z,98.80
2023-02-24T19:15:48.404Z,98.80
2023-02-24T19:18:17.015Z,98.80
2023-02-24T19:20:45.277Z,98.80
2023-02-24T19:23:14.695Z,98.80
2023-02-24T19:25:42.657Z,99.00
2023-02-24T19:28:10.632Z,99.00
2023-02-24T19:30:39.965Z,99.00
2023-02-24T19:33:09.635Z,99.10
2023-02-24T19:35:41.033Z,99.10
2023-02-24T19:38:09.052Z,99.00
2023-02-24T19:40:38.404Z,99.10
2023-02-24T19:43:06.734Z,99.20
2023-02-24T19:45:34.944Z,99.20
2023-02-24T19:48:02.908Z,99.20
2023-02-24T19:50:30.954Z,99.20
2023-02-24T19:52:58.937Z,99.20
2023-02-24T19:55:26.931Z,99.00
2023-02-24T19:57:56.758Z,98.90
2023-02-24T20:00:25.066Z,99.00
2023-02-24T20:02:53.351Z,99.00
2023-02-24T20:05:21.463Z,99.00
2023-02-24T20:07:49.472Z,99.10
2023-02-24T20:10:18.292Z,99.10
2023-02-24T20:12:46.785Z,99.10
2023-02-24T20:15:18.489Z,99.00
2023-02-24T20:17:48.895Z,98.80
2023-02-24T20:20:17.908Z,98.80
2023-02-24T20:22:45.894Z,98.80
2023-02-24T20:25:15.385Z,98.80
2023-02-24T20:27:43.424Z,98.90
2023-02-24T20:30:12.709Z,98.90
2023-02-24T20:32:42.267Z,98.80
2023-02-24T20:35:11.290Z,98.80
2023-02-24T20:37:39.336Z,98.80
2023-02-24T20:40:09.034Z,98.70
2023-02-24T20:42:37.007Z,98.60
2023-02-24T20:45:05.452Z,98.40
2023-02-24T20:47:33.518Z,98.40
2023-02-24T20:50:03.207Z,98.40
2023-02-24T20:52:31.217Z,98.30
2023-02-24T20:54:59.339Z,98.30
2023-02-24T20:57:27.344Z,98.40
2023-02-24T21:00:03.534Z,98.30
2023-02-24T21:02:31.955Z,98.30
2023-02-24T21:05:00.017Z,98.30
2023-02-24T21:07:29.403Z,98.30
2023-02-24T21:09:57.409Z,98.40
2023-02-24T21:12:25.463Z,98.40
2023-02-24T21:14:53.444Z,98.40
2023-02-24T21:17:21.499Z,98.40
2023-02-24T21:19:49.830Z,98.50
2023-02-24T21:22:17.917Z,98.50
2023-02-24T21:24:47.364Z,98.60
2023-02-24T21:27:15.341Z,98.60
2023-02-24T21:29:44.650Z,98.50
2023-02-24T21:32:14.369Z,98.40
2023-02-24T21:34:42.587Z,98.50
2023-02-24T21:37:10.563Z,98.50
2023-02-24T21:39:38.603Z,98.40
2023-02-24T21:42:08.468Z,98.30
2023-02-24T21:44:36.413Z,98.20
2023-02-24T21:47:04.683Z,98.20
2023-02-24T21:49:33.185Z,98.20
2023-02-24T21:52:01.562Z,98.20
2023-02-24T21:54:30.881Z,98.00
2023-02-24T21:56:58.844Z,98.10
2023-02-24T21:59:28.215Z,98.00
2023-02-24T22:01:56.278Z,98.00
2023-02-24T22:04:24.657Z,97.90
2023-02-24T22:06:52.720Z,97.90
2023-02-24T22:09:20.792Z,97.90
2023-02-24T22:11:49.708Z,97.90
2023-02-24T22:14:18.286Z,97.90
2023-02-24T22:16:47.633Z,98.00
2023-02-24T22:19:15.621Z,98.10
2023-02-24T22:21:43.595Z,98.10
2023-02-24T22:24:14.043Z,98.10
2023-02-24T22:26:42.592Z,98.00
2023-02-24T22:29:11.006Z,98.00
2023-02-24T22:31:39.692Z,98.00
2023-02-24T22:34:09.267Z,98.00
2023-02-24T22:36:38.419Z,98.00
2023-02-24T22:39:09.274Z,98.00
2023-02-24T22:41:38.187Z,98.10
2023-02-24T22:44:06.756Z,98.10
2023-02-24T22:46:36.882Z,98.00
2023-02-24T22:49:05.288Z,98.00
2023-02-24T22:51:34.710Z,97.90
2023-02-24T22:54:02.734Z,98.00
2023-02-24T22:56:31.562Z,97.90
2023-02-24T22:59:00.598Z,97.80
2023-02-24T23:01:30.639Z,97.80
2023-02-24T23:04:01.303Z,97.80
2023-02-24T23:06:30.366Z,97.90
2023-02-24T23:09:01.588Z,97.90
2023-02-24T23:11:32.039Z,97.90
2023-02-24T23:14:02.185Z,97.80
2023-02-24T23:16:33.049Z,97.90
2023-02-24T23:19:04.311Z,98.30
2023-02-24T23:21:34.895Z,98.10
2023-02-24T23:24:04.885Z,98.10
2023-02-24T23:26:34.212Z,98.10
2023-02-24T23:29:02.327Z,98.10
2023-02-24T23:31:30.793Z,98.20
2023-02-24T23:33:59.521Z,98.10
2023-02-24T23:36:27.773Z,98.30
2023-02-24T23:38:57.320Z,98.20
2023-02-24T23:41:26.712Z,98.20
2023-02-24T23:43:54.833Z,98.20
2023-02-24T23:46:23.681Z,98.20
2023-02-24T23:48:53.589Z,98.30
2023-02-24T23:51:21.793Z,98.30
2023-02-24T23:53:49.960Z,98.30
2023-02-24T23:56:19.566Z,98.30
2023-02-24T23:58:52.949Z,98.20
